Time;durP1;ratioP1;P1;durP2;ratioP2;P2;SDS_P1;SDS_P2;PMS_P1;PMS_P2;Temp;Humidity;BMP_temperature;BMP_pressure;BME280_temperature;BME280_humidity;BME280_pressure;Samples;Min_cycle;Max_cycle;Signal;HPM_P1;HPM_P2
2022/06/24 00:00:45;;;;;;;2.73;1.43;;;22.00;99.90;;;22.42;nan;100011.31;4952769;28;20643;-63
2022/06/24 00:03:19;;;;;;;2.33;1.17;;;21.70;99.90;;;22.14;nan;100008.78;4953557;28;20671;-62
2022/06/24 00:05:47;;;;;;;6.10;1.10;;;21.50;99.90;;;22.02;nan;99991.75;4953081;28;21042;-63
2022/06/24 00:08:15;;;;;;;2.33;1.30;;;21.30;99.90;;;22.14;nan;99973.41;4953200;28;20642;-64
2022/06/24 00:10:43;;;;;;;2.50;1.33;;;21.30;99.90;;;22.13;nan;99975.25;4967290;28;21246;-64
2022/06/24 00:13:10;;;;;;;1.53;1.23;;;21.40;99.90;;;21.96;nan;99966.00;4953667;28;21436;-64
2022/06/24 00:15:38;;;;;;;3.27;1.43;;;21.20;99.90;;;21.98;nan;99965.78;4964867;28;20627;-63
2022/06/24 00:18:17;;;;;;;3.83;1.50;;;21.20;99.90;;;22.08;nan;99959.09;4956968;28;20647;-63
2022/06/24 00:20:48;;;;;;;1.23;1.10;;;21.20;99.90;;;21.87;nan;99961.09;4956244;28;20703;-64
2022/06/24 00:23:18;;;;;;;1.77;0.93;;;21.20;99.90;;;21.56;nan;99978.28;4954742;28;20702;-63
2022/06/24 00:25:46;;;;;;;0.50;0.50;;;20.90;99.90;;;21.32;nan;99983.22;4956615;28;20798;-64
2022/06/24 00:28:14;;;;;;;4.87;1.80;;;20.70;99.90;;;21.28;nan;99990.75;4967807;28;20636;-63
2022/06/24 00:30:55;;;;;;;1.53;1.13;;;20.50;99.90;;;21.08;nan;100008.38;4952705;28;21202;-64
2022/06/24 00:33:26;;;;;;;4.37;1.30;;;20.40;99.90;;;21.05;nan;100029.16;4952987;28;20656;-63
2022/06/24 00:35:59;;;;;;;2.40;1.50;;;20.30;99.90;;;21.14;nan;100050.06;4952203;29;20624;-65
2022/06/24 00:38:51;;;;;;;2.83;1.40;;;20.40;99.90;;;20.92;nan;100048.41;4952439;28;20657;-62
2022/06/24 00:41:24;;;;;;;1.20;1.10;;;20.30;99.90;;;20.88;nan;100047.97;4952031;28;20652;-62
2022/06/24 00:43:56;;;;;;;2.97;1.57;;;20.20;99.90;;;21.02;nan;100053.38;4957008;28;20656;-63
2022/06/24 00:46:37;;;;;;;5.50;1.77;;;20.30;99.90;;;21.02;nan;100046.22;4970899;28;20655;-63
2022/06/24 00:49:07;;;;;;;1.20;1.20;;;20.40;99.90;;;20.88;nan;100037.34;4962629;28;20632;-64
2022/06/24 00:51:38;;;;;;;3.53;1.13;;;20.20;99.90;;;20.81;nan;100030.34;4952997;29;21216;-65
2022/06/24 00:54:11;;;;;;;5.73;1.60;;;20.20;99.90;;;20.77;nan;100026.44;4953304;28;20629;-63
2022/06/24 00:56:39;;;;;;;3.47;1.30;;;20.10;99.90;;;20.70;nan;100014.94;4951489;29;20650;-64
2022/06/24 00:59:11;;;;;;;1.53;1.40;;;20.00;99.90;;;20.68;nan;100003.72;4946886;29;20645;-63
2022/06/24 01:01:41;;;;;;;1.70;1.30;;;20.10;99.90;;;20.62;nan;100001.81;4943965;28;20632;-63
2022/06/24 01:04:12;;;;;;;3.30;0.97;;;20.00;99.90;;;20.51;nan;100007.63;4952975;28;21035;-65
2022/06/24 01:06:42;;;;;;;2.57;1.47;;;19.90;99.90;;;20.61;nan;100013.44;4952804;28;21029;-62
2022/06/24 01:09:11;;;;;;;1.57;1.30;;;19.90;99.90;;;20.55;nan;100004.41;4952315;29;20679;-64
2022/06/24 01:11:43;;;;;;;2.27;1.40;;;19.90;99.90;;;20.54;nan;100010.72;4951657;28;20989;-63
2022/06/24 01:14:11;;;;;;;3.90;1.30;;;19.80;99.90;;;20.56;nan;100003.41;4951860;28;20640;-62
2022/06/24 01:16:39;;;;;;;1.90;1.73;;;19.80;99.90;;;20.51;nan;100005.78;4951434;29;20624;-63
2022/06/24 01:19:09;;;;;;;8.73;1.50;;;19.80;99.90;;;20.54;nan;99994.00;4952274;28;20644;-64
2022/06/24 01:21:47;;;;;;;1.50;1.40;;;19.80;99.90;;;20.41;nan;99996.53;4955522;28;20651;-63
2022/06/24 01:24:22;;;;;;;2.10;1.10;;;19.70;99.90;;;20.43;nan;99994.50;4956847;28;21005;-63
2022/06/24 01:26:58;;;;;;;1.47;1.40;;;19.80;99.90;;;20.47;nan;99985.16;4963692;28;20671;-65
2022/06/24 01:29:26;;;;;;;2.47;1.70;;;19.80;99.90;;;20.50;nan;99990.09;4950521;29;20635;-62
2022/06/24 01:31:54;;;;;;;1.83;1.33;;;19.80;99.90;;;20.54;nan;99978.09;4952373;28;20624;-61
2022/06/24 01:34:23;;;;;;;3.60;1.70;;;19.80;99.90;;;20.60;nan;99975.50;4952516;28;21343;-64
2022/06/24 01:36:51;;;;;;;1.30;1.20;;;19.90;99.90;;;20.64;nan;99973.28;4953480;28;20984;-64
2022/06/24 01:39:20;;;;;;;2.90;1.07;;;20.00;99.90;;;20.61;nan;99971.03;4950952;28;20640;-64
2022/06/24 01:41:49;;;;;;;1.40;1.30;;;19.90;99.90;;;20.61;nan;99955.13;4951475;28;21047;-64
2022/06/24 01:44:17;;;;;;;3.10;1.53;;;20.00;99.90;;;20.64;nan;99957.38;4946776;28;20644;-63
2022/06/24 01:46:44;;;;;;;2.30;1.50;;;20.00;99.90;;;20.69;nan;99949.69;4957964;28;20667;-65
2022/06/24 01:49:11;;;;;;;2.80;1.17;;;20.00;99.90;;;20.73;nan;99949.13;4955425;28;20953;-63
2022/06/24 01:51:41;;;;;;;1.47;1.37;;;20.00;99.90;;;20.81;nan;99950.81;4952442;28;20624;-63
2022/06/24 01:54:09;;;;;;;1.80;1.47;;;20.10;99.90;;;20.79;nan;99952.81;4950021;29;20678;-64
2022/06/24 01:56:36;;;;;;;1.53;1.40;;;20.10;99.90;;;20.56;nan;99946.94;4951494;28;20628;-64
2022/06/24 01:59:05;;;;;;;2.73;1.43;;;19.90;99.90;;;20.52;nan;99949.16;4951221;28;20691;-63
2022/06/24 02:01:32;;;;;;;2.23;1.60;;;19.90;99.90;;;20.50;nan;99937.91;4935650;29;20688;-63
2022/06/24 02:04:00;;;;;;;1.70;1.40;;;19.80;99.90;;;20.26;nan;99942.75;4951484;28;20670;-64
2022/06/24 02:06:27;;;;;;;3.13;1.63;;;19.70;99.90;;;20.28;nan;99948.69;4950144;28;20664;-63
2022/06/24 02:08:56;;;;;;;2.23;1.60;;;19.60;99.90;;;20.27;nan;99949.72;4950864;28;20631;-64
2022/06/24 02:14:10;;;;;;;1.40;1.13;;;19.60;99.90;;;20.15;nan;99936.09;4951815;28;20632;-66
2022/06/24 02:16:39;;;;;;;1.97;1.70;;;19.50;99.90;;;20.20;nan;99931.09;4966060;28;20643;-64
2022/06/24 02:19:07;;;;;;;1.50;1.50;;;19.50;99.90;;;20.15;nan;99933.47;4950911;29;21222;-64
2022/06/24 02:21:35;;;;;;;2.20;1.83;;;19.50;99.90;;;20.16;nan;99929.81;4952026;28;20636;-66
2022/06/24 02:24:04;;;;;;;1.43;1.33;;;19.50;99.90;;;20.19;nan;99929.41;4950788;28;20721;-67
2022/06/24 02:26:31;;;;;;;2.30;1.40;;;19.60;99.90;;;20.08;nan;99917.50;4946524;29;20679;-65
2022/06/24 02:28:58;;;;;;;2.50;2.10;;;19.40;99.90;;;20.06;nan;99926.63;4932335;29;20995;-63
2022/06/24 02:31:25;;;;;;;2.93;1.60;;;19.40;99.90;;;19.96;nan;99913.72;4931254;29;20988;-65
2022/06/24 02:33:52;;;;;;;3.23;1.83;;;19.30;99.90;;;20.05;nan;99895.88;4933615;29;20653;-66
2022/06/24 02:36:19;;;;;;;2.17;1.93;;;19.40;99.90;;;19.94;nan;99894.56;4947597;29;21211;-65
2022/06/24 02:38:46;;;;;;;1.93;1.83;;;19.30;99.90;;;19.91;nan;99902.06;4950762;28;20675;-65
2022/06/24 02:41:14;;;;;;;2.77;2.03;;;19.30;99.90;;;19.96;nan;99902.31;4951428;28;21211;-66
2022/06/24 02:43:42;;;;;;;2.60;2.10;;;19.30;99.90;;;19.98;nan;99902.94;4951399;28;20672;-65
2022/06/24 02:46:13;;;;;;;3.17;1.73;;;19.30;99.90;;;19.80;nan;99910.50;4970796;28;20663;-67
2022/06/24 02:48:42;;;;;;;3.80;1.90;;;19.20;99.90;;;19.81;nan;99904.16;4970688;28;20868;-66
2022/06/24 02:51:12;;;;;;;5.47;1.97;;;19.20;99.90;;;19.90;nan;99903.88;4972554;28;20627;-64
2022/06/24 02:53:39;;;;;;;1.50;1.40;;;19.20;99.90;;;19.93;nan;99897.41;4968516;28;20712;-66
2022/06/24 02:56:14;;;;;;;2.93;1.60;;;19.30;99.90;;;19.95;nan;99898.03;4970276;28;21182;-67
2022/06/24 02:58:42;;;;;;;4.60;1.73;;;19.30;99.90;;;19.84;nan;99896.69;4968634;28;20650;-68
2022/06/24 03:01:10;;;;;;;3.07;2.10;;;19.20;99.90;;;19.77;nan;99892.31;4955585;28;20627;-66
2022/06/24 03:03:38;;;;;;;2.83;2.23;;;19.10;99.90;;;19.77;nan;99895.78;4953977;28;20682;-67
2022/06/24 03:06:06;;;;;;;4.17;2.10;;;19.20;99.90;;;19.71;nan;99888.59;4954632;28;20999;-66
2022/06/24 03:08:33;;;;;;;2.07;1.80;;;19.10;99.90;;;19.62;nan;99900.31;4955358;28;21359;-65
2022/06/24 03:11:01;;;;;;;3.60;2.30;;;19.10;99.90;;;19.68;nan;99891.59;4955210;28;20616;-64
2022/06/24 03:13:28;;;;;;;2.50;2.23;;;19.00;99.90;;;19.68;nan;99902.19;4955171;28;20683;-64
2022/06/24 03:15:56;;;;;;;2.07;1.90;;;19.00;99.90;;;19.69;nan;99897.72;4954663;28;20622;-65
2022/06/24 03:18:24;;;;;;;5.23;2.40;;;19.10;99.90;;;19.71;nan;99893.06;4953888;28;20640;-65
2022/06/24 03:20:51;;;;;;;2.00;1.70;;;19.10;99.90;;;19.64;nan;99892.16;4953679;29;20632;-63
2022/06/24 03:23:19;;;;;;;5.47;2.57;;;19.00;99.90;;;19.64;nan;99893.00;4952662;28;20663;-63
2022/06/24 03:25:46;;;;;;;4.00;2.77;;;19.10;99.90;;;19.71;nan;99896.53;4954758;28;20619;-66
2022/06/24 03:28:14;;;;;;;2.43;2.23;;;19.10;99.90;;;19.73;nan;99907.75;4936723;29;20636;-65
2022/06/24 03:30:41;;;;;;;4.43;2.83;;;19.10;99.90;;;19.75;nan;99905.75;4953567;28;20646;-64
2022/06/24 03:33:08;;;;;;;6.60;2.90;;;19.10;99.90;;;19.72;nan;99911.41;4954010;28;20670;-65
2022/06/24 03:35:35;;;;;;;3.73;2.67;;;19.10;99.90;;;19.80;nan;99911.31;4954686;28;20976;-64
2022/06/24 03:38:02;;;;;;;4.33;2.67;;;19.10;99.90;;;19.69;nan;99909.16;4954383;28;20623;-64
2022/06/24 03:40:30;;;;;;;2.40;2.20;;;19.10;99.90;;;19.64;nan;99908.88;4953195;28;20643;-64
2022/06/24 03:42:57;;;;;;;2.80;2.07;;;19.00;99.90;;;19.69;nan;99908.31;4954211;28;20663;-64
2022/06/24 03:45:24;;;;;;;9.20;2.87;;;19.00;99.90;;;19.64;nan;99898.28;4967480;28;21431;-64
2022/06/24 03:47:51;;;;;;;3.70;2.33;;;19.00;99.90;;;19.57;nan;99896.56;4972052;28;20670;-65
2022/06/24 03:50:18;;;;;;;4.20;2.80;;;18.90;99.90;;;19.65;nan;99897.28;4955879;28;21178;-67
2022/06/24 03:52:45;;;;;;;5.10;3.33;;;19.00;99.90;;;19.65;nan;99901.75;4954585;28;20660;-63
2022/06/24 03:55:13;;;;;;;4.30;2.37;;;19.00;99.90;;;19.72;nan;99908.75;4953328;29;20632;-63
2022/06/24 03:57:40;;;;;;;3.23;2.90;;;19.10;99.90;;;19.78;nan;99915.16;4959730;28;20713;-65
2022/06/24 04:00:08;;;;;;;3.77;3.07;;;19.10;99.90;;;19.90;nan;99918.94;4953669;28;20640;-64
2022/06/24 04:02:36;;;;;;;3.37;2.50;;;19.20;99.90;;;19.99;nan;99900.13;4952145;28;20677;-65
2022/06/24 04:05:07;;;;;;;3.80;2.80;;;19.30;99.90;;;19.91;nan;99904.72;4953086;29;20634;-64
2022/06/24 04:07:34;;;;;;;3.63;3.17;;;19.20;99.90;;;19.94;nan;99910.44;4954186;28;21271;-66
2022/06/24 04:10:01;;;;;;;4.50;2.27;;;19.20;99.90;;;19.98;nan;99914.34;4954889;28;20636;-65
2022/06/24 04:12:28;;;;;;;2.40;2.07;;;19.30;99.90;;;20.01;nan;99907.88;4953823;28;20663;-64
2022/06/24 04:15:14;;;;;;;6.43;2.40;;;19.40;99.90;;;19.89;nan;99910.16;4957446;28;20639;-64
2022/06/24 04:17:42;;;;;;;3.47;2.83;;;19.30;99.90;;;19.78;nan;99910.66;4969413;28;20631;-64
2022/06/24 04:20:11;;;;;;;3.60;2.80;;;19.20;99.90;;;19.87;nan;99904.25;4956090;28;21174;-63
2022/06/24 04:22:38;;;;;;;4.20;2.40;;;19.20;99.90;;;19.92;nan;99915.09;4973532;28;21246;-67
2022/06/24 04:25:06;;;;;;;4.87;2.50;;;19.20;99.90;;;19.72;nan;99914.03;4953558;28;21469;-66
2022/06/24 04:27:33;;;;;;;2.63;2.43;;;19.10;99.90;;;19.80;nan;99910.50;4968832;28;21199;-65
2022/06/24 04:30:08;;;;;;;2.20;2.07;;;19.10;99.90;;;19.78;nan;99907.22;4973771;28;20985;-64
2022/06/24 04:32:35;;;;;;;1.80;1.70;;;19.10;99.90;;;19.71;nan;99911.59;4967672;28;21248;-63
2022/06/24 04:35:03;;;;;;;2.13;2.00;;;19.10;99.90;;;19.70;nan;99902.81;4960180;28;21000;-64
2022/06/24 04:37:31;;;;;;;2.90;2.40;;;19.00;99.90;;;19.83;nan;99908.28;4953846;28;21000;-65
2022/06/24 04:39:58;;;;;;;3.63;2.77;;;19.20;99.90;;;19.83;nan;99908.28;4952586;28;20636;-65
2022/06/24 04:42:26;;;;;;;6.50;2.90;;;19.20;99.90;;;19.83;nan;99908.28;4952796;28;20682;-64
2022/06/24 04:44:53;;;;;;;2.73;2.47;;;19.20;99.90;;;19.89;nan;99906.72;4949634;28;20641;-64
2022/06/24 04:47:20;;;;;;;3.90;2.80;;;19.20;99.90;;;20.03;nan;99906.66;4972847;28;20655;-65
2022/06/24 04:49:47;;;;;;;4.30;2.33;;;19.40;99.90;;;20.27;nan;99904.69;4950744;28;20643;-63
2022/06/24 04:52:15;;;;;;;3.00;2.10;;;19.70;99.90;;;20.29;nan;99907.97;4955502;28;20668;-65
2022/06/24 04:54:44;;;;;;;2.17;2.00;;;19.70;99.90;;;20.67;nan;99912.78;4953435;28;20624;-65
2022/06/24 04:57:11;;;;;;;2.20;2.00;;;20.10;99.90;;;20.87;nan;99907.59;4954376;28;20628;-64
2022/06/24 04:59:38;;;;;;;2.13;2.03;;;20.40;99.90;;;21.06;nan;99906.16;4952491;28;20644;-64
2022/06/24 05:02:06;;;;;;;3.30;2.67;;;20.60;99.90;;;21.32;nan;99901.78;4953149;28;21045;-64
2022/06/24 05:04:35;;;;;;;2.23;2.13;;;20.70;99.90;;;21.48;nan;99909.44;4952814;28;20612;-66
2022/06/24 05:07:04;;;;;;;10.33;2.10;;;21.00;99.90;;;21.30;nan;99905.66;4951909;28;20679;-64
2022/06/24 05:09:31;;;;;;;2.00;1.53;;;20.80;99.90;;;21.37;nan;99910.00;4952353;29;20785;-65
2022/06/24 05:11:58;;;;;;;2.77;2.23;;;20.80;99.90;;;21.31;nan;99916.09;4953127;28;20652;-64
2022/06/24 05:14:27;;;;;;;2.20;2.00;;;20.80;99.90;;;21.21;nan;99910.28;4952598;28;21043;-65
2022/06/24 05:16:54;;;;;;;3.57;2.23;;;20.70;99.90;;;21.18;nan;99920.50;4951522;28;20647;-66
2022/06/24 05:19:21;;;;;;;2.63;2.40;;;20.50;99.90;;;21.15;nan;99920.88;4953186;28;20821;-64
2022/06/24 05:21:49;;;;;;;2.70;2.50;;;20.50;99.90;;;21.23;nan;99918.88;4957648;28;20650;-66
2022/06/24 05:24:16;;;;;;;3.60;2.93;;;20.60;99.90;;;21.33;nan;99923.84;4955327;28;21242;-65
2022/06/24 05:26:44;;;;;;;3.73;3.17;;;20.70;99.90;;;21.62;nan;99926.22;4944725;28;20672;-64
2022/06/24 05:29:12;;;;;;;5.37;3.10;;;20.90;99.90;;;22.09;nan;99926.19;4950570;29;20643;-64
2022/06/24 05:31:39;;;;;;;3.70;3.40;;;21.50;99.90;;;22.63;nan;99933.25;4952291;28;20766;-65
2022/06/24 05:34:07;;;;;;;4.60;3.50;;;22.10;99.90;;;23.12;nan;99930.94;4946943;29;20647;-65
2022/06/24 05:36:34;;;;;;;6.27;3.30;;;22.60;99.90;;;23.69;nan;99931.00;4942224;29;20643;-65
2022/06/24 05:39:06;;;;;;;2.40;2.30;;;23.20;99.90;;;23.99;nan;99935.75;4950372;29;20632;-64
2022/06/24 05:41:34;;;;;;;4.80;2.97;;;23.50;99.90;;;23.89;nan;99938.91;4951804;28;20632;-65
2022/06/24 05:44:01;;;;;;;5.43;2.90;;;23.40;99.90;;;23.78;nan;99928.91;4952270;29;21037;-65
2022/06/24 05:46:29;;;;;;;7.10;2.80;;;23.20;99.90;;;23.68;nan;99937.34;4951452;28;20645;-65
2022/06/24 05:48:57;;;;;;;6.70;3.00;;;23.10;99.90;;;23.29;nan;99945.44;4951654;29;20612;-65
2022/06/24 05:51:24;;;;;;;3.50;3.10;;;22.60;99.90;;;23.30;nan;99946.28;4950263;28;20639;-66
2022/06/24 05:56:38;;;;;;;2.93;2.73;;;22.50;99.90;;;22.89;nan;99936.69;4951143;28;20644;-64
2022/06/24 05:59:12;;;;;;;3.70;2.93;;;22.40;99.90;;;23.12;nan;99938.94;4952198;28;21199;-66
2022/06/24 06:01:39;;;;;;;7.30;3.00;;;22.50;99.90;;;23.49;nan;99935.56;4949176;28;21211;-66
2022/06/24 06:04:06;;;;;;;4.00;2.97;;;22.90;99.90;;;23.91;nan;99940.31;4951092;28;20628;-66
2022/06/24 06:06:34;;;;;;;5.90;3.07;;;23.40;99.90;;;24.30;nan;99928.63;4951020;28;20640;-64
2022/06/24 06:09:02;;;;;;;13.23;3.13;;;23.90;99.90;;;24.31;nan;99934.78;4952500;28;20628;-65
2022/06/24 06:11:30;;;;;;;2.60;2.40;;;23.80;99.90;;;24.75;nan;99933.84;4950921;28;20639;-65
2022/06/24 06:13:57;;;;;;;11.50;2.73;;;24.30;99.90;;;25.12;nan;99930.22;4951778;28;20636;-66
2022/06/24 06:16:26;;;;;;;3.37;2.77;;;24.70;99.90;;;25.71;nan;99933.06;4951118;28;20640;-65
2022/06/24 06:18:53;;;;;;;2.47;2.00;;;25.30;99.90;;;26.36;nan;99934.03;4951294;28;20608;-64
2022/06/24 06:21:20;;;;;;;3.40;2.33;;;26.00;99.90;;;26.63;nan;99937.91;4943267;28;20720;-65
2022/06/24 06:23:47;;;;;;;2.37;2.17;;;26.30;99.90;;;26.34;nan;99932.63;4949688;28;20644;-63
2022/06/24 06:26:14;;;;;;;3.27;2.40;;;25.90;99.90;;;26.14;nan;99939.09;4951196;28;20639;-64
2022/06/24 06:28:41;;;;;;;3.83;2.50;;;25.60;99.90;;;26.02;nan;99940.84;4958207;28;20666;-64
2022/06/24 06:31:10;;;;;;;2.37;2.10;;;25.40;99.90;;;25.58;nan;99937.72;4957734;28;20635;-66
2022/06/24 06:33:38;;;;;;;2.30;2.10;;;25.00;99.90;;;24.84;nan;99938.69;4957784;28;21260;-66
2022/06/24 06:36:11;;;;;;;4.03;2.17;;;24.40;99.90;;;24.46;nan;99932.63;4955563;29;20632;-63
2022/06/24 06:38:39;;;;;;;1.90;1.80;;;23.90;99.90;;;24.13;nan;99930.16;4957088;29;20628;-65
2022/06/24 06:41:17;;;;;;;3.13;2.03;;;23.60;99.90;;;23.91;nan;99928.84;4958123;28;20630;-62
2022/06/24 06:43:44;;;;;;;4.93;1.80;;;23.20;99.90;;;24.10;nan;99925.28;4958694;28;20663;-65
2022/06/24 06:46:11;;;;;;;4.13;2.47;;;23.40;99.90;;;25.22;nan;99925.19;4956780;28;20652;-65
2022/06/24 06:48:39;;;;;;;2.53;2.20;;;24.50;99.90;;;26.07;nan;99932.16;4956065;28;20667;-65
2022/06/24 06:51:06;;;;;;;7.03;4.40;;;25.60;99.90;;;26.46;nan;99925.44;4960170;28;20640;-65
2022/06/24 06:53:34;;;;;;;4.50;2.47;;;26.00;99.90;;;26.39;nan;99932.75;4958213;28;20670;-67
2022/06/24 06:56:01;;;;;;;2.60;2.40;;;25.90;99.90;;;26.34;nan;99940.66;4957575;28;20639;-69
2022/06/24 06:58:28;;;;;;;5.83;2.57;;;25.90;99.90;;;25.95;nan;99942.00;4957043;28;20666;-69
2022/06/24 07:00:55;;;;;;;3.37;2.23;;;25.30;99.90;;;25.35;nan;99938.38;4955898;28;20642;-68
2022/06/24 07:03:22;;;;;;;5.30;2.50;;;24.80;99.90;;;25.19;nan;99939.00;4958953;28;20639;-66
2022/06/24 07:05:50;;;;;;;2.80;2.40;;;24.50;99.90;;;24.88;nan;99944.41;4955846;28;20644;-67
2022/06/24 07:08:17;;;;;;;3.20;2.50;;;24.20;99.90;;;24.57;nan;99939.94;4956642;28;20671;-66
2022/06/24 07:10:45;;;;;;;5.57;2.70;;;23.90;99.90;;;24.53;nan;99930.72;4957514;28;20624;-67
2022/06/24 07:13:13;;;;;;;2.43;2.23;;;23.80;99.90;;;25.76;nan;99932.38;4957026;29;20658;-67
2022/06/24 07:15:40;;;;;;;6.33;2.47;;;25.00;99.90;;;26.89;nan;99947.41;4954736;28;20632;-66
2022/06/24 07:18:08;;;;;;;2.90;2.63;;;26.10;99.90;;;28.58;nan;99944.16;4956606;28;20699;-67
2022/06/24 07:20:35;;;;;;;3.37;2.50;;;27.90;99.90;;;28.74;nan;99946.03;4955986;29;20648;-68
2022/06/24 07:23:02;;;;;;;2.43;2.20;;;28.20;99.90;;;28.11;nan;99935.53;4964250;28;20674;-67
2022/06/24 07:25:33;;;;;;;4.03;2.90;;;27.60;99.90;;;27.59;nan;99935.59;4955419;28;20634;-67
2022/06/24 07:28:00;;;;;;;2.80;2.60;;;27.00;99.90;;;27.20;nan;99939.00;4957033;28;20672;-67
2022/06/24 07:30:29;;;;;;;4.30;2.40;;;26.50;99.90;;;27.25;nan;99935.63;4937256;28;20641;-67
2022/06/24 07:32:56;;;;;;;4.60;2.43;;;26.50;99.90;;;29.40;nan;99929.00;4965891;28;20651;-67
2022/06/24 07:35:24;;;;;;;3.53;2.13;;;28.50;99.90;;;31.57;nan;99931.75;4975507;28;20627;-68
2022/06/24 07:38:11;;;;;;;1.83;1.60;;;30.90;97.80;;;33.30;nan;99938.66;4958360;28;20624;-67
2022/06/24 07:40:38;;;;;;;2.80;2.00;;;32.60;92.10;;;33.63;nan;99942.59;4954400;29;20601;-67
2022/06/24 07:43:05;;;;;;;1.40;1.40;;;33.10;85.50;;;34.27;nan;99943.34;4936160;29;20656;-66
2022/06/24 07:45:33;;;;;;;2.20;1.50;;;33.60;79.70;;;34.17;nan;99938.00;4954073;28;20632;-66
2022/06/24 07:48:00;;;;;;;2.20;2.10;;;33.50;74.70;;;34.55;nan;99938.25;4972569;28;20673;-67
2022/06/24 07:50:27;;;;;;;1.63;1.53;;;33.80;72.30;;;34.75;nan;99936.19;4973661;28;20623;-67
2022/06/24 07:52:54;;;;;;;1.80;1.70;;;34.10;70.60;;;33.72;nan;99926.59;4973145;28;20655;-66
2022/06/24 07:58:07;;;;;;;1.70;1.57;;;32.10;72.40;;;31.70;nan;99924.00;4957732;28;20654;-66
2022/06/24 08:00:34;;;;;;;1.70;1.53;;;31.00;74.60;;;30.22;nan;99927.00;4969421;28;20631;-67
2022/06/24 08:03:01;;;;;;;2.07;1.80;;;29.70;75.90;;;29.83;nan;99918.28;4953740;28;20647;-66
2022/06/24 08:05:28;;;;;;;2.40;1.63;;;29.00;79.60;;;29.06;nan;99918.34;4953750;28;20674;-67
2022/06/24 08:07:55;;;;;;;1.53;1.53;;;28.40;81.80;;;28.40;nan;99923.72;4936480;29;20703;-66
2022/06/24 08:10:22;;;;;;;3.17;2.00;;;27.70;84.50;;;27.29;nan;99915.34;4952864;28;20630;-67
2022/06/24 08:12:49;;;;;;;1.77;1.67;;;26.60;89.30;;;27.04;nan;99912.13;4954093;28;20738;-67
2022/06/24 08:15:17;;;;;;;2.10;2.00;;;26.20;91.20;;;27.03;nan;99916.66;4954100;28;20628;-67
2022/06/24 08:17:44;;;;;;;2.30;1.87;;;26.20;92.40;;;26.79;nan;99923.09;4952616;28;20644;-66
2022/06/24 08:20:11;;;;;;;1.97;1.87;;;26.00;92.80;;;26.58;nan;99926.25;4951617;29;20651;-66
2022/06/24 08:22:38;;;;;;;2.80;2.10;;;25.80;93.60;;;26.59;nan;99922.56;4953437;28;21022;-66
2022/06/24 08:25:07;;;;;;;1.90;1.80;;;25.80;94.40;;;26.49;nan;99917.75;4952574;28;20735;-66
2022/06/24 08:27:47;;;;;;;1.80;1.70;;;25.80;95.40;;;26.69;nan;99917.44;4950943;28;21150;-67
2022/06/24 08:30:14;;;;;;;2.87;2.17;;;26.00;95.70;;;26.58;nan;99916.38;4932639;28;20659;-67
2022/06/24 08:32:41;;;;;;;4.50;1.90;;;25.90;95.90;;;26.87;nan;99912.84;4962438;28;20659;-65
2022/06/24 08:35:08;;;;;;;2.40;1.90;;;26.20;95.90;;;26.92;nan;99912.94;4954077;28;20625;-66
2022/06/24 08:37:56;;;;;;;1.63;1.63;;;26.20;96.00;;;27.08;nan;99907.94;4954740;29;20627;-67
2022/06/24 08:40:26;;;;;;;1.93;1.83;;;26.40;96.30;;;27.46;nan;99911.75;4951990;29;20644;-66
2022/06/24 08:42:56;;;;;;;3.40;2.40;;;26.70;95.80;;;28.37;nan;99910.78;4951736;29;21031;-66
2022/06/24 08:45:25;;;;;;;2.43;2.23;;;27.70;94.80;;;29.49;nan;99916.78;4952425;28;20659;-66
2022/06/24 08:47:52;;;;;;;4.87;2.00;;;28.80;92.70;;;29.36;nan;99911.75;4967060;28;20672;-66
2022/06/24 08:50:20;;;;;;;2.70;2.00;;;28.80;91.40;;;29.20;nan;99909.94;4949836;28;20658;-65
2022/06/24 08:52:52;;;;;;;1.83;1.73;;;28.50;91.50;;;28.27;nan;99906.06;4971384;28;20686;-66
2022/06/24 08:55:23;;;;;;;2.50;2.07;;;27.80;92.20;;;27.73;nan;99895.13;4962102;28;20643;-66
2022/06/24 08:57:52;;;;;;;2.00;1.87;;;27.00;93.40;;;27.94;nan;99897.13;4953415;28;20655;-65
2022/06/24 09:00:20;;;;;;;2.10;2.00;;;27.20;92.90;;;28.62;nan;99905.88;4951168;28;20659;-68
2022/06/24 09:02:48;;;;;;;7.80;1.80;;;27.80;92.50;;;30.57;nan;99897.72;4953131;28;20684;-67
2022/06/24 09:05:16;;;;;;;2.90;2.10;;;29.80;90.50;;;32.37;nan;99899.56;4952249;29;20632;-67
2022/06/24 09:07:45;;;;;;;1.60;1.60;;;31.70;83.80;;;34.73;nan;99897.75;4951462;29;20672;-66
2022/06/24 09:10:13;;;;;;;2.30;2.10;;;34.00;76.60;;;36.92;nan;99898.78;4951986;29;20636;-67
2022/06/24 09:12:46;;;;;;;1.83;1.80;;;36.30;68.80;;;39.20;nan;99895.06;4958021;28;21256;-66
2022/06/24 09:15:15;;;;;;;3.80;1.90;;;38.50;62.30;;;40.48;nan;99900.66;4957505;28;20644;-66
2022/06/24 09:17:43;;;;;;;2.30;2.10;;;40.00;56.80;;;40.57;nan;99904.16;4949024;29;20632;-66
2022/06/24 09:20:19;;;;;;;2.10;2.00;;;40.00;54.10;;;40.72;nan;99898.16;4951996;28;20640;-67
2022/06/24 09:23:05;;;;;;;2.60;2.17;;;40.00;53.70;;;39.00;nan;99887.41;4949999;29;21016;-66
2022/06/24 09:25:40;;;;;;;2.30;2.20;;;38.80;52.40;;;37.29;nan;99889.59;4953296;28;20643;-66
2022/06/24 09:28:08;;;;;;;3.07;2.27;;;36.70;54.80;;;35.23;nan;99873.88;4950252;29;20663;-67
2022/06/24 09:30:36;;;;;;;5.67;2.10;;;34.50;57.80;;;33.66;nan;99881.72;4950727;29;20624;-66
2022/06/24 09:33:04;;;;;;;2.20;2.10;;;32.90;61.00;;;32.76;nan;99872.81;4972105;28;20718;-66
2022/06/24 09:36:10;;;;;;;2.20;2.13;;;32.00;63.40;;;31.82;nan;99867.91;4954215;28;20688;-66
2022/06/24 09:39:08;;;;;;;2.60;2.50;;;31.10;65.50;;;31.45;nan;99869.16;4951209;28;21180;-67
2022/06/24 09:41:45;;;;;;;2.10;2.00;;;30.60;67.70;;;32.95;nan;99871.16;4950133;29;21208;-66
2022/06/24 09:44:13;;;;;;;2.60;1.90;;;31.90;67.30;;;36.67;nan;99876.66;4952117;28;20646;-66
2022/06/24 09:46:41;;;;;;;2.27;2.17;;;35.60;61.50;;;39.65;nan;99880.09;4951574;28;20640;-66
2022/06/24 09:49:12;;;;;;;1.67;1.67;;;38.90;55.60;;;38.12;nan;99880.16;4947291;28;20671;-67
2022/06/24 09:51:44;;;;;;;2.90;2.20;;;38.50;53.00;;;36.31;nan;99871.81;4956148;28;20639;-67
2022/06/24 09:54:13;;;;;;;2.10;1.97;;;35.90;55.30;;;35.00;nan;99870.09;4965097;28;20635;-66
2022/06/24 09:56:40;;;;;;;2.20;2.10;;;34.30;57.90;;;34.13;nan;99861.13;4963593;28;20655;-66
2022/06/24 10:01:54;;;;;;;2.13;2.03;;;31.80;62.30;;;35.20;nan;99863.63;4951225;28;20651;-66
2022/06/24 10:04:21;;;;;;;2.00;1.90;;;34.20;60.90;;;37.94;nan;99880.03;4949262;29;20640;-66
2022/06/24 10:06:50;;;;;;;2.07;2.00;;;37.20;56.30;;;38.18;nan;99873.47;4949899;29;21009;-67
2022/06/24 10:09:26;;;;;;;1.70;1.70;;;37.50;54.70;;;39.70;nan;99881.88;4951315;28;21036;-66
2022/06/24 10:11:57;;;;;;;2.47;2.37;;;38.90;53.80;;;39.33;nan;99875.84;4950639;28;21181;-65
2022/06/24 10:14:29;;;;;;;2.27;2.17;;;38.80;52.80;;;36.89;nan;99877.59;4951505;28;20683;-66
2022/06/24 10:16:58;;;;;;;2.00;1.90;;;36.40;54.80;;;34.57;nan;99871.88;4951021;28;20664;-66
2022/06/24 10:19:26;;;;;;;2.33;2.13;;;34.30;57.40;;;33.17;nan;99866.25;4950720;29;20628;-65
2022/06/24 10:21:53;;;;;;;2.40;2.00;;;32.70;60.60;;;31.97;nan;99859.88;4950586;28;21033;-66
2022/06/24 10:24:20;;;;;;;1.70;1.60;;;31.30;63.00;;;30.94;nan;99855.44;4962778;28;20640;-66
2022/06/24 10:26:55;;;;;;;4.20;2.40;;;30.40;64.90;;;30.02;nan;99857.69;4958731;28;20748;-65
2022/06/24 10:29:27;;;;;;;2.50;2.40;;;29.50;66.90;;;29.57;nan;99865.25;4949604;29;20671;-66
2022/06/24 10:32:02;;;;;;;5.23;2.43;;;28.80;68.50;;;29.34;nan;99854.78;4950244;28;20639;-66
2022/06/24 10:34:34;;;;;;;2.50;2.30;;;28.50;70.90;;;29.17;nan;99854.84;4950860;29;20639;-66
2022/06/24 10:37:23;;;;;;;2.67;2.33;;;28.30;71.80;;;29.14;nan;99860.66;4950231;29;20632;-67
2022/06/24 10:39:54;;;;;;;2.60;2.50;;;28.30;72.70;;;29.41;nan;99860.78;4938397;29;20617;-66
2022/06/24 10:42:22;;;;;;;2.57;2.37;;;28.60;72.40;;;29.61;nan;99861.81;4944899;29;21204;-65
2022/06/24 10:44:56;;;;;;;2.43;2.20;;;28.80;72.30;;;30.09;nan;99860.94;4949700;29;21014;-67
2022/06/24 10:47:28;;;;;;;2.47;2.37;;;29.20;72.10;;;30.17;nan;99860.50;4950216;28;21188;-65
2022/06/24 10:50:00;;;;;;;2.03;1.97;;;29.40;71.70;;;30.58;nan;99859.75;4968602;28;20663;-66
2022/06/24 10:52:48;;;;;;;2.50;2.30;;;29.80;71.00;;;30.37;nan;99854.47;4994011;23;20675;-64